Dades de l'estació automàtica l'Ametlla de Mar
Resum diari
21:30 TU| Temperatura mitjana | 15.4 °C | |
|---|---|---|
| Temperatura màxima | 19.9 °C | 10:38 TU |
| Temperatura mínima | 11.7 °C | 5:01 TU |
| Humitat relativa mitjana | 90% | |
| Precipitació acumulada | 6.2 mm | |
| Ratxa màxima del vent (2 m) | 19.1 km/h - 117º | 14:21 TU |
| Irradiació solar global | 10.3 MJ/m2 | |
El tram horari està expressat en Temps Universal (TU). Cal sumar una hora en horari d'hivern i dues en horari d'estiu per passar a l'hora oficial.
l'Ametlla de Mar
| Municipi | L'Ametlla de Mar |
|---|---|
| Comarca | Baix Ebre |
| Altitud | 94 m |
| Data alta | 29.08.1995 |
| Estat actual | Operativa |
| Període TU |
TM °C |
TX °C |
TN °C |
HRM % |
PPT mm |
VVM (2 m) km/h |
DVM (2 m) graus |
VVX (2 m) km/h |
RS W/m2 |
|---|---|---|---|---|---|---|---|---|---|
| 00:00 - 00:30 | 12.8 | 13.0 | 12.5 | 95 | 0.0 | 0.4 | 341 | 2.5 | 0 |
| 00:30 - 01:00 | 12.4 | 12.5 | 12.3 | 96 | 0.0 | 0.7 | 319 | 2.9 | 0 |
| 01:00 - 01:30 | 12.3 | 12.3 | 12.2 | 97 | 0.0 | 1.1 | 289 | 5.8 | 0 |
| 01:30 - 02:00 | 12.6 | 12.9 | 12.3 | 98 | 0.0 | 2.2 | 306 | 5.0 | 0 |
| 02:00 - 02:30 | 12.9 | 13.1 | 12.8 | 96 | 0.0 | 1.4 | 345 | 4.7 | 0 |
| 02:30 - 03:00 | 12.7 | 13.1 | 12.4 | 95 | 0.0 | 0.4 | 316 | 2.9 | 0 |
| 03:00 - 03:30 | 12.0 | 12.3 | 11.7 | 97 | 0.0 | 0.4 | 299 | 3.6 | 0 |
| 03:30 - 04:00 | 11.9 | 12.1 | 11.8 | 98 | 0.0 | 1.1 | 326 | 4.3 | 0 |
| 04:00 - 04:30 | 12.1 | 12.1 | 11.8 | 98 | 0.0 | 0.7 | 329 | 3.2 | 0 |
| 04:30 - 05:00 | 11.8 | 11.8 | 11.7 | 98 | 0.0 | 0.7 | 300 | 3.6 | 1 |
| 05:00 - 05:30 | 12.0 | 12.5 | 11.7 | 98 | 0.0 | 1.1 | 341 | 4.0 | 40 |
| 05:30 - 06:00 | 13.2 | 13.6 | 12.6 | 97 | 0.0 | 0.4 | 340 | 2.9 | 67 |
| 06:00 - 06:30 | 14.5 | 15.3 | 13.6 | 94 | 0.0 | 3.2 | 38 | 8.3 | 84 |
| 06:30 - 07:00 | 16.1 | 16.6 | 15.4 | 87 | 0.0 | 4.7 | 58 | 11.9 | 204 |
| 07:00 - 07:30 | 17.2 | 17.9 | 16.3 | 83 | 0.0 | 5.4 | 68 | 10.4 | 357 |
| 07:30 - 08:00 | 17.7 | 18.3 | 17.3 | 79 | 0.0 | 4.0 | 97 | 9.7 | 285 |
| 08:00 - 08:30 | 18.5 | 19.2 | 17.8 | 75 | 0.0 | 4.7 | 88 | 11.5 | 481 |
| 08:30 - 09:00 | 18.3 | 18.6 | 18.0 | 76 | 0.0 | 4.3 | 105 | 9.4 | 338 |
| 09:00 - 09:30 | 18.3 | 18.6 | 17.9 | 77 | 0.0 | 4.7 | 103 | 11.5 | 391 |
| 09:30 - 10:00 | 18.2 | 18.6 | 18.0 | 78 | 0.0 | 6.1 | 142 | 14.4 | 345 |
| 10:00 - 10:30 | 18.7 | 19.4 | 18.2 | 77 | 0.0 | 5.0 | 158 | 11.5 | 530 |
| 10:30 - 11:00 | 19.4 | 19.9 | 18.8 | 73 | 0.0 | 4.3 | 147 | 10.4 | 501 |
| 11:00 - 11:30 | 17.8 | 18.8 | 17.1 | 83 | 0.3 | 6.1 | 168 | 13.0 | 154 |
| 11:30 - 12:00 | 16.9 | 17.2 | 16.6 | 93 | 0.4 | 4.7 | 153 | 11.5 | 180 |
| 12:00 - 12:30 | 17.0 | 17.3 | 16.7 | 92 | 0.0 | 2.9 | 89 | 7.6 | 184 |
| 12:30 - 13:00 | 17.2 | 17.5 | 17.0 | 89 | 0.0 | 4.0 | 160 | 8.6 | 154 |
| 13:00 - 13:30 | 17.7 | 17.9 | 17.4 | 86 | 0.0 | 4.0 | 196 | 8.6 | 176 |
| 13:30 - 14:00 | 18.3 | 18.8 | 17.9 | 85 | 0.0 | 4.3 | 164 | 10.8 | 318 |
| 14:00 - 14:30 | 18.6 | 18.9 | 18.3 | 81 | 0.0 | 6.8 | 145 | 19.1 | 297 |
| 14:30 - 15:00 | 18.4 | 18.5 | 18.1 | 81 | 0.0 | 5.8 | 152 | 11.9 | 169 |
| 15:00 - 15:30 | 17.9 | 18.1 | 17.6 | 84 | 0.0 | 4.7 | 139 | 10.4 | 63 |
| 15:30 - 16:00 | 17.4 | 17.6 | 17.1 | 88 | 0.5 | 3.6 | 126 | 8.3 | 81 |
| 16:00 - 16:30 | 17.6 | 17.9 | 17.3 | 89 | 0.0 | 1.8 | 158 | 7.6 | 166 |
| 16:30 - 17:00 | 17.4 | 17.6 | 17.0 | 91 | 1.0 | 1.8 | 252 | 5.8 | 55 |
| 17:00 - 17:30 | 16.9 | 17.1 | 16.7 | 95 | 0.9 | 2.2 | 243 | 6.8 | 32 |
| 17:30 - 18:00 | 16.3 | 16.7 | 15.4 | 97 | 1.8 | 4.0 | 249 | 10.1 | 9 |
| 18:00 - 18:30 | 15.4 | 15.6 | 15.1 | 96 | 1.3 | 2.2 | 271 | 8.6 | 65 |
| 18:30 - 19:00 | 14.7 | 15.1 | 14.4 | 96 | 0.0 | 3.2 | 305 | 11.2 | 14 |
| 19:00 - 19:30 | 14.4 | 14.6 | 14.1 | 95 | 0.0 | 2.5 | 300 | 8.6 | 0 |
| 19:30 - 20:00 | 13.6 | 14.1 | 13.3 | 96 | 0.0 | 1.8 | 296 | 5.4 | 0 |
| 20:00 - 20:30 | 13.0 | 13.2 | 12.9 | 95 | 0.0 | 2.5 | 321 | 8.6 | 0 |
| 20:30 - 21:00 | 12.8 | 12.9 | 12.7 | 94 | 0.0 | 3.2 | 304 | 9.7 | 0 |
| 21:00 - 21:30 | 12.4 | 12.7 | 12.1 | 94 | 0.0 | 3.2 | 303 | 9.0 | 0 |
| 21:30 - 22:00 | 12.1 | 12.3 | 12.0 | 94 | 0.0 | 2.5 | 318 | 9.4 | 0 |
Les dades en taronja només han passat un control de qualitat automàtic. Resta pendent la seva validació definitiva.